createdAt,value
2019-03-01T00:01:29.533Z,7.40
2019-03-01T00:04:02.226Z,7.40
2019-03-01T00:06:47.814Z,7.40
2019-03-01T00:10:05.193Z,7.40
2019-03-01T00:13:12.535Z,7.40
2019-03-01T00:15:54.921Z,7.30
2019-03-01T00:18:59.481Z,7.30
2019-03-01T00:21:54.245Z,7.20
2019-03-01T00:24:55.312Z,7.30
2019-03-01T00:27:51.078Z,7.20
2019-03-01T00:31:13.206Z,7.30
2019-03-01T00:34:04.406Z,7.30
2019-03-01T00:36:58.666Z,7.30
2019-03-01T00:40:01.826Z,7.30
2019-03-01T00:43:21.306Z,7.30
2019-03-01T00:48:30.846Z,7.30
2019-03-01T00:50:59.603Z,7.30
2019-03-01T00:53:28.374Z,7.30
2019-03-01T00:55:57.162Z,7.30
2019-03-01T00:58:25.969Z,7.30
2019-03-01T01:00:55.111Z,7.30
2019-03-01T01:03:23.874Z,7.30
2019-03-01T01:05:52.807Z,7.30
2019-03-01T01:08:21.588Z,7.30
2019-03-01T01:10:50.618Z,7.30
2019-03-01T01:13:19.389Z,7.30
2019-03-01T01:15:48.177Z,7.30
2019-03-01T01:18:16.958Z,7.30
2019-03-01T01:20:45.991Z,7.30
2019-03-01T01:23:14.908Z,7.30
2019-03-01T01:25:43.721Z,7.30
2019-03-01T01:28:12.555Z,7.30
2019-03-01T01:30:41.346Z,7.30
2019-03-01T01:33:10.114Z,7.30
2019-03-01T01:35:38.890Z,7.30
2019-03-01T01:38:07.659Z,7.30
2019-03-01T01:40:36.803Z,7.20
2019-03-01T01:43:05.769Z,7.20
2019-03-01T01:45:34.663Z,7.20
2019-03-01T01:48:03.445Z,7.20
2019-03-01T01:50:32.306Z,7.20
2019-03-01T01:53:01.081Z,7.20
2019-03-01T01:55:29.950Z,7.20
2019-03-01T01:57:58.762Z,7.20
2019-03-01T02:00:27.619Z,7.20
2019-03-01T02:02:56.378Z,7.20
2019-03-01T02:05:25.224Z,7.20
2019-03-01T02:07:54.007Z,7.20
2019-03-01T02:10:22.976Z,7.20
2019-03-01T02:12:51.816Z,7.20
2019-03-01T02:15:20.602Z,7.20
2019-03-01T02:17:49.366Z,7.20
2019-03-01T02:20:18.174Z,7.20
2019-03-01T02:22:46.938Z,7.20
2019-03-01T02:25:16.121Z,7.20
2019-03-01T02:27:44.887Z,7.20
2019-03-01T02:30:16.538Z,7.20
2019-03-01T02:32:52.300Z,7.20
2019-03-01T02:35:22.880Z,7.30
2019-03-01T02:37:51.745Z,7.20
2019-03-01T02:40:21.023Z,7.30
2019-03-01T02:42:49.913Z,7.20
2019-03-01T02:45:20.186Z,7.20
2019-03-01T02:47:49.087Z,7.20
2019-03-01T02:50:18.766Z,7.20
2019-03-01T02:52:47.654Z,7.20
2019-03-01T02:55:17.395Z,7.10
2019-03-01T02:57:46.326Z,7.10
2019-03-01T03:00:20.256Z,7.10
2019-03-01T03:02:49.102Z,7.20
2019-03-01T03:05:18.012Z,7.20
2019-03-01T03:07:51.570Z,7.20
2019-03-01T03:10:20.783Z,7.20
2019-03-01T03:12:50.501Z,7.20
2019-03-01T03:15:25.758Z,7.30
2019-03-01T03:17:54.626Z,7.30
2019-03-01T03:20:23.645Z,7.30
2019-03-01T03:22:52.713Z,7.30
2019-03-01T03:25:21.478Z,7.30
2019-03-01T03:27:50.268Z,7.30
2019-03-01T03:30:19.179Z,7.30
2019-03-01T03:32:48.242Z,7.30
2019-03-01T03:35:17.031Z,7.30
2019-03-01T03:37:46.083Z,7.30
2019-03-01T03:40:15.111Z,7.30
2019-03-01T03:42:44.085Z,7.30
2019-03-01T03:45:13.387Z,7.30
2019-03-01T03:47:42.233Z,7.30
2019-03-01T03:50:11.898Z,7.30
2019-03-01T03:52:40.799Z,7.30
2019-03-01T03:55:11.401Z,7.30
2019-03-01T03:57:40.511Z,7.30
2019-03-01T04:00:13.201Z,7.40
2019-03-01T04:02:42.613Z,7.40
2019-03-01T04:05:11.809Z,7.40
2019-03-01T04:07:40.743Z,7.30
2019-03-01T04:10:09.696Z,7.40
2019-03-01T04:12:38.637Z,7.40
2019-03-01T04:15:08.792Z,7.40
2019-03-01T04:17:37.578Z,7.40
2019-03-01T04:20:08.013Z,7.30
2019-03-01T04:22:36.879Z,7.30
2019-03-01T04:25:06.194Z,7.30
2019-03-01T04:27:35.018Z,7.30
2019-03-01T04:30:03.973Z,7.30
2019-03-01T04:32:32.742Z,7.30
2019-03-01T04:35:01.535Z,7.30
2019-03-01T04:37:30.442Z,7.40
2019-03-01T04:39:59.222Z,7.40
2019-03-01T04:42:28.122Z,7.40
2019-03-01T04:44:56.987Z,7.40
2019-03-01T04:47:25.815Z,7.40
2019-03-01T04:49:54.906Z,7.40
2019-03-01T04:52:37.079Z,7.40
2019-03-01T04:55:11.161Z,7.30
2019-03-01T04:57:40.002Z,7.30
2019-03-01T05:00:12.398Z,7.30
2019-03-01T05:02:41.322Z,7.30
2019-03-01T05:05:10.543Z,7.30
2019-03-01T05:07:39.441Z,7.30
2019-03-01T05:10:09.236Z,7.30
2019-03-01T05:12:38.031Z,7.30
2019-03-01T05:15:07.645Z,7.30
2019-03-01T05:17:36.542Z,7.30
2019-03-01T05:20:05.807Z,7.30
2019-03-01T05:22:34.631Z,7.30
2019-03-01T05:25:03.606Z,7.30
2019-03-01T05:27:32.583Z,7.30
2019-03-01T05:30:01.426Z,7.30
2019-03-01T05:32:30.286Z,7.30
2019-03-01T05:34:59.081Z,7.30
2019-03-01T05:37:27.852Z,7.30
2019-03-01T05:39:56.638Z,7.30
2019-03-01T05:42:25.409Z,7.30
2019-03-01T05:44:54.190Z,7.30
2019-03-01T05:47:23.091Z,7.30
2019-03-01T05:49:51.893Z,7.30
2019-03-01T05:52:20.661Z,7.30
2019-03-01T05:54:49.764Z,7.30
2019-03-01T05:57:18.522Z,7.30
2019-03-01T05:59:47.345Z,7.20
2019-03-01T06:03:07.022Z,7.30
2019-03-01T06:05:38.539Z,7.30
2019-03-01T06:08:41.926Z,7.20
2019-03-01T06:11:49.195Z,7.20
2019-03-01T06:14:46.335Z,7.30
2019-03-01T06:17:38.104Z,7.30
2019-03-01T06:20:53.554Z,7.30
2019-03-01T06:23:27.643Z,7.30
2019-03-01T06:26:46.356Z,7.30
2019-03-01T06:29:49.098Z,7.30
2019-03-01T06:32:45.126Z,7.30
2019-03-01T06:35:27.133Z,7.30
2019-03-01T06:38:48.754Z,7.20
2019-03-01T06:41:51.843Z,7.20
2019-03-01T06:45:09.982Z,7.30
2019-03-01T06:47:44.620Z,7.30
2019-03-01T06:50:31.316Z,7.30
2019-03-01T06:53:00.097Z,7.30
2019-03-01T06:55:45.825Z,7.40
2019-03-01T06:58:20.753Z,7.40
2019-03-01T07:00:53.094Z,7.40
2019-03-01T07:03:22.490Z,7.40
2019-03-01T07:05:51.247Z,7.40
2019-03-01T07:08:20.145Z,7.50
2019-03-01T07:10:49.241Z,7.50
2019-03-01T07:13:18.860Z,7.60
2019-03-01T07:15:47.651Z,7.60
2019-03-01T07:18:16.426Z,7.60
2019-03-01T07:20:45.264Z,7.70
2019-03-01T07:23:14.049Z,7.70
2019-03-01T07:25:42.851Z,7.70
2019-03-01T07:28:11.619Z,7.70
2019-03-01T07:30:40.384Z,7.80
2019-03-01T07:33:09.185Z,7.80
2019-03-01T07:35:42.474Z,7.90
2019-03-01T07:38:11.257Z,7.90
2019-03-01T07:40:40.107Z,8.00
2019-03-01T07:43:08.884Z,8.10
2019-03-01T07:45:37.644Z,8.20
2019-03-01T07:48:06.833Z,8.30
2019-03-01T07:50:35.699Z,8.30
2019-03-01T07:53:04.819Z,8.30
2019-03-01T07:55:33.790Z,8.30
2019-03-01T07:58:02.559Z,8.20
2019-03-01T08:00:31.370Z,8.20
2019-03-01T08:03:00.225Z,8.30
2019-03-01T08:05:29.065Z,8.40
2019-03-01T08:08:02.571Z,8.60
2019-03-01T08:10:28.598Z,8.90
2019-03-01T08:12:57.354Z,9.30
2019-03-01T08:15:26.202Z,9.40
2019-03-01T08:17:54.966Z,9.30
2019-03-01T08:20:23.742Z,9.20
2019-03-01T08:22:52.506Z,9.10
2019-03-01T08:25:23.413Z,9.00
2019-03-01T08:27:51.758Z,8.90
2019-03-01T08:30:20.703Z,8.80
2019-03-01T08:32:49.543Z,8.80
2019-03-01T08:35:18.502Z,8.70
2019-03-01T08:37:49.818Z,8.70
2019-03-01T08:40:18.172Z,8.70
2019-03-01T08:42:46.910Z,8.60
2019-03-01T08:45:16.823Z,8.60
2019-03-01T08:47:45.735Z,8.50
2019-03-01T08:50:15.633Z,8.60
2019-03-01T08:52:44.535Z,8.60
2019-03-01T08:55:15.357Z,8.70
2019-03-01T08:57:44.740Z,8.90
2019-03-01T09:00:32.937Z,9.40
2019-03-01T09:03:17.237Z,9.80
2019-03-01T09:05:45.957Z,9.90
2019-03-01T09:08:14.714Z,9.90
2019-03-01T09:10:43.831Z,9.80
2019-03-01T09:13:12.601Z,9.60
2019-03-01T09:15:41.371Z,9.50
2019-03-01T09:18:11.616Z,9.40
2019-03-01T09:20:40.876Z,9.40
2019-03-01T09:23:21.155Z,9.50
2019-03-01T09:25:41.436Z,9.90
2019-03-01T09:28:11.193Z,10.00
2019-03-01T09:30:43.534Z,10.00
2019-03-01T09:33:11.310Z,10.20
2019-03-01T09:35:53.618Z,10.70
2019-03-01T09:38:22.479Z,10.90
2019-03-01T09:40:51.324Z,11.00
2019-03-01T09:43:20.106Z,10.90
2019-03-01T09:45:49.552Z,10.80
2019-03-01T09:48:18.688Z,10.70
2019-03-01T09:50:47.483Z,10.50
2019-03-01T09:53:16.341Z,10.50
2019-03-01T09:55:45.271Z,10.50
2019-03-01T09:58:14.105Z,10.40
2019-03-01T10:00:55.643Z,10.40
2019-03-01T10:03:16.087Z,10.20
2019-03-01T10:05:44.918Z,10.00
2019-03-01T10:08:13.695Z,9.90
2019-03-01T10:10:42.483Z,9.70
2019-03-01T10:13:11.289Z,9.70
2019-03-01T10:15:40.213Z,9.70
2019-03-01T10:18:09.016Z,9.80
2019-03-01T10:20:37.846Z,9.90
2019-03-01T10:23:06.688Z,9.80
2019-03-01T10:25:35.494Z,9.70
2019-03-01T10:28:04.333Z,9.60
2019-03-01T10:30:33.197Z,9.60
2019-03-01T10:33:02.073Z,9.60
2019-03-01T10:35:30.962Z,9.40
2019-03-01T10:37:59.739Z,9.30
2019-03-01T10:40:28.610Z,9.20
2019-03-01T10:42:57.369Z,9.20
2019-03-01T10:45:26.324Z,9.10
2019-03-01T10:47:55.098Z,9.00
2019-03-01T10:50:24.322Z,8.90
2019-03-01T10:52:53.246Z,8.90
2019-03-01T10:55:22.489Z,8.90
2019-03-01T10:57:51.367Z,8.80
2019-03-01T11:00:21.938Z,9.00
2019-03-01T11:02:51.045Z,9.20
2019-03-01T11:05:20.158Z,9.20
2019-03-01T11:07:50.030Z,9.20
2019-03-01T11:10:30.226Z,9.10
2019-03-01T11:12:59.033Z,8.90
2019-03-01T11:15:27.980Z,8.70
2019-03-01T11:17:56.773Z,8.70
2019-03-01T11:20:25.829Z,8.60
2019-03-01T11:22:54.907Z,8.50
2019-03-01T11:25:23.701Z,8.50
2019-03-01T11:27:53.522Z,8.50
2019-03-01T11:30:24.578Z,8.40
2019-03-01T11:32:53.431Z,8.50
2019-03-01T11:35:22.220Z,8.50
2019-03-01T11:37:51.322Z,8.50
2019-03-01T11:40:22.403Z,8.50
2019-03-01T11:42:51.253Z,8.40
2019-03-01T11:45:20.043Z,8.40
2019-03-01T11:47:48.840Z,8.50
2019-03-01T11:50:19.385Z,8.60
2019-03-01T11:52:48.261Z,8.70
2019-03-01T11:55:17.220Z,8.70
2019-03-01T11:57:46.146Z,8.70
2019-03-01T12:00:18.638Z,8.70
2019-03-01T12:02:48.747Z,8.60
2019-03-01T12:05:17.725Z,8.40
2019-03-01T12:07:46.657Z,8.40
2019-03-01T12:10:20.492Z,8.30
2019-03-01T12:12:49.421Z,8.20
2019-03-01T12:15:18.343Z,8.10
2019-03-01T12:17:47.461Z,8.10
2019-03-01T12:20:17.737Z,8.10
2019-03-01T12:22:46.580Z,8.10
2019-03-01T12:25:15.423Z,8.00
2019-03-01T12:27:44.589Z,8.00
2019-03-01T12:30:15.754Z,7.90
2019-03-01T12:32:45.025Z,7.90
2019-03-01T12:35:13.987Z,7.80
2019-03-01T12:37:42.912Z,7.90
2019-03-01T12:40:14.794Z,7.90
2019-03-01T12:42:45.575Z,7.80
2019-03-01T12:45:14.904Z,7.80
2019-03-01T12:47:43.793Z,7.70
2019-03-01T12:50:12.875Z,7.70
2019-03-01T12:52:41.753Z,7.70
2019-03-01T12:55:12.762Z,7.60
2019-03-01T12:57:41.570Z,7.60
2019-03-01T13:00:15.754Z,7.50
2019-03-01T13:02:44.926Z,7.50
2019-03-01T13:05:13.798Z,7.50
2019-03-01T13:07:42.828Z,7.40
2019-03-01T13:10:20.426Z,7.40
2019-03-01T13:12:50.027Z,7.40
2019-03-01T13:15:18.972Z,7.40
2019-03-01T13:17:49.896Z,7.40
2019-03-01T13:20:18.462Z,7.30
2019-03-01T13:22:47.309Z,7.30
2019-03-01T13:25:16.283Z,7.30
2019-03-01T13:27:45.087Z,7.20
2019-03-01T13:30:16.057Z,7.20
2019-03-01T13:32:44.946Z,7.20
2019-03-01T13:35:14.103Z,7.20
2019-03-01T13:37:42.963Z,7.20
2019-03-01T13:40:13.497Z,7.20
2019-03-01T13:42:42.383Z,7.20
2019-03-01T13:45:15.018Z,7.20
2019-03-01T13:47:44.886Z,7.20
2019-03-01T13:50:14.665Z,7.20
2019-03-01T13:52:43.504Z,7.20
2019-03-01T13:55:12.430Z,7.20
2019-03-01T13:57:41.398Z,7.20
2019-03-01T14:00:12.685Z,7.20
2019-03-01T14:02:43.048Z,7.30
2019-03-01T14:05:13.301Z,7.30
2019-03-01T14:07:42.682Z,7.30
2019-03-01T14:10:12.991Z,7.30
2019-03-01T14:12:41.951Z,7.10
2019-03-01T14:15:12.934Z,7.20
2019-03-01T14:17:41.727Z,7.10
2019-03-01T14:20:19.059Z,7.10
2019-03-01T14:22:47.838Z,7.20
2019-03-01T14:25:17.226Z,7.20
2019-03-01T14:27:46.396Z,7.20
2019-03-01T14:30:17.066Z,7.20
2019-03-01T14:32:45.898Z,7.30
2019-03-01T14:35:14.959Z,7.40
2019-03-01T14:37:43.742Z,7.40
2019-03-01T14:40:13.461Z,7.40
2019-03-01T14:42:46.506Z,7.50
2019-03-01T14:45:15.643Z,7.40
2019-03-01T14:47:44.424Z,7.40
2019-03-01T14:50:14.634Z,7.40
2019-03-01T14:52:43.578Z,7.50
2019-03-01T14:55:14.998Z,7.50
2019-03-01T14:57:47.404Z,7.40
2019-03-01T15:00:55.353Z,7.40
2019-03-01T15:03:37.782Z,7.40
2019-03-01T15:06:08.166Z,7.40
2019-03-01T15:08:40.479Z,7.40
2019-03-01T15:11:22.251Z,7.40
2019-03-01T15:13:52.576Z,7.40
2019-03-01T15:16:21.552Z,7.40
2019-03-01T15:18:50.461Z,7.40
2019-03-01T15:21:19.356Z,7.40
2019-03-01T15:23:48.124Z,7.30
2019-03-01T15:26:16.931Z,7.30
2019-03-01T15:28:53.677Z,7.30
2019-03-01T15:31:18.384Z,7.30
2019-03-01T15:33:48.402Z,7.30
2019-03-01T15:36:17.785Z,7.30
2019-03-01T15:38:47.929Z,7.30
2019-03-01T15:41:16.809Z,7.30
2019-03-01T15:43:45.854Z,7.30
2019-03-01T15:46:15.423Z,7.30
2019-03-01T15:48:44.577Z,7.30
2019-03-01T15:51:13.397Z,7.20
2019-03-01T15:53:42.612Z,7.20
2019-03-01T15:56:11.555Z,7.20
2019-03-01T15:58:40.333Z,7.20
2019-03-01T16:01:11.923Z,7.20
2019-03-01T16:03:41.180Z,7.20
2019-03-01T16:06:10.604Z,7.20
2019-03-01T16:08:44.016Z,7.10
2019-03-01T16:11:12.664Z,7.10
2019-03-01T16:13:47.779Z,7.10
2019-03-01T16:16:13.690Z,7.00
2019-03-01T16:18:43.370Z,7.00
2019-03-01T16:21:12.296Z,7.10
2019-03-01T16:23:41.160Z,7.10
2019-03-01T16:26:10.050Z,7.00
2019-03-01T16:28:38.890Z,7.00
2019-03-01T16:31:07.693Z,7.00
2019-03-01T16:33:36.528Z,6.90
2019-03-01T16:36:10.274Z,6.90
2019-03-01T16:38:41.154Z,6.90
2019-03-01T16:41:09.873Z,6.90
2019-03-01T16:43:39.015Z,6.80
2019-03-01T16:46:07.787Z,6.90
2019-03-01T16:48:36.589Z,6.80
2019-03-01T16:51:05.365Z,6.80
2019-03-01T16:53:36.684Z,6.70
2019-03-01T16:56:04.867Z,6.60
2019-03-01T16:58:34.103Z,6.50
2019-03-01T17:01:02.877Z,6.50
2019-03-01T17:03:31.997Z,6.50
2019-03-01T17:06:00.794Z,6.40
2019-03-01T17:08:29.835Z,6.30
2019-03-01T17:10:58.690Z,6.30
2019-03-01T17:13:28.130Z,6.20
2019-03-01T17:15:57.066Z,6.20
2019-03-01T17:18:26.146Z,6.20
2019-03-01T17:20:54.929Z,6.20
2019-03-01T17:23:23.713Z,6.20
2019-03-01T17:25:52.490Z,6.20
2019-03-01T17:28:23.667Z,6.10
2019-03-01T17:30:51.992Z,6.10
2019-03-01T17:33:20.897Z,6.10
2019-03-01T17:35:49.690Z,6.00
2019-03-01T17:38:18.494Z,6.10
2019-03-01T17:40:47.351Z,6.10
2019-03-01T17:43:16.145Z,6.10
2019-03-01T17:45:44.989Z,6.00
2019-03-01T17:48:13.834Z,6.00
2019-03-01T17:50:44.688Z,6.00
2019-03-01T17:53:13.435Z,6.00
2019-03-01T17:55:42.310Z,5.90
2019-03-01T17:58:11.318Z,5.90
2019-03-01T18:00:40.925Z,5.90
2019-03-01T18:03:09.974Z,5.80
2019-03-01T18:05:40.641Z,5.80
2019-03-01T18:08:09.642Z,5.80
2019-03-01T18:10:38.425Z,5.70
2019-03-01T18:13:07.308Z,5.60
2019-03-01T18:15:36.101Z,5.50
2019-03-01T18:18:04.898Z,5.40
2019-03-01T18:20:37.196Z,5.30
2019-03-01T18:23:04.267Z,5.30
2019-03-01T18:25:33.425Z,5.30
2019-03-01T18:28:03.765Z,5.30
2019-03-01T18:30:32.630Z,5.20
2019-03-01T18:33:01.538Z,5.20
2019-03-01T18:35:30.363Z,5.20
2019-03-01T18:37:59.418Z,5.20
2019-03-01T18:40:28.365Z,5.20
2019-03-01T18:42:57.578Z,5.20
2019-03-01T18:45:26.510Z,5.20
2019-03-01T18:47:55.879Z,5.20
2019-03-01T18:50:27.661Z,5.20
2019-03-01T18:52:57.385Z,5.20
2019-03-01T18:55:26.275Z,5.20
2019-03-01T18:57:55.133Z,5.20
2019-03-01T19:00:26.553Z,5.20
2019-03-01T19:02:57.437Z,5.00
2019-03-01T19:05:25.997Z,5.00
2019-03-01T19:07:54.774Z,5.00
2019-03-01T19:10:24.008Z,5.00
2019-03-01T19:12:54.218Z,5.00
2019-03-01T19:15:23.073Z,4.90
2019-03-01T19:17:51.921Z,4.90
2019-03-01T19:20:22.628Z,4.80
2019-03-01T19:22:51.473Z,4.90
2019-03-01T19:25:21.623Z,4.80
2019-03-01T19:27:51.815Z,4.80
2019-03-01T19:30:21.922Z,4.80
2019-03-01T19:32:50.854Z,4.90
2019-03-01T19:35:19.705Z,4.90
2019-03-01T19:37:49.661Z,4.90
2019-03-01T19:40:19.220Z,4.90
2019-03-01T19:42:48.092Z,4.80
2019-03-01T19:45:17.641Z,4.90
2019-03-01T19:47:46.822Z,4.90
2019-03-01T19:50:17.410Z,4.90
2019-03-01T19:52:47.050Z,4.80
2019-03-01T19:55:16.983Z,4.80
2019-03-01T19:57:45.854Z,4.80
2019-03-01T20:00:17.106Z,4.80
2019-03-01T20:02:46.066Z,4.90
2019-03-01T20:05:16.649Z,4.90
2019-03-01T20:07:45.512Z,4.80
2019-03-01T20:10:16.048Z,4.80
2019-03-01T20:12:44.971Z,4.70
2019-03-01T20:15:20.434Z,4.70
2019-03-01T20:17:49.037Z,4.60
2019-03-01T20:20:18.792Z,4.60
2019-03-01T20:22:50.498Z,4.60
2019-03-01T20:25:18.238Z,4.60
2019-03-01T20:27:47.101Z,4.50
2019-03-01T20:30:18.018Z,4.50
2019-03-01T20:32:47.385Z,4.50
2019-03-01T20:35:17.594Z,4.60
2019-03-01T20:37:46.538Z,4.60
2019-03-01T20:40:15.497Z,4.50
2019-03-01T20:42:44.364Z,4.50
2019-03-01T20:45:15.911Z,4.50
2019-03-01T20:47:44.856Z,4.50
2019-03-01T20:50:15.709Z,4.50
2019-03-01T20:52:44.447Z,4.50
2019-03-01T20:55:13.681Z,4.50
2019-03-01T20:57:42.454Z,4.50
2019-03-01T21:00:13.244Z,4.50
2019-03-01T21:02:42.086Z,4.50
2019-03-01T21:05:11.341Z,4.60
2019-03-01T21:07:40.203Z,4.60
2019-03-01T21:10:15.714Z,4.60
2019-03-01T21:12:43.045Z,4.60
2019-03-01T21:15:12.053Z,4.50
2019-03-01T21:17:41.010Z,4.50
2019-03-01T21:20:10.964Z,4.40
2019-03-01T21:22:40.779Z,4.40
2019-03-01T21:25:11.662Z,4.40
2019-03-01T21:27:40.521Z,4.40
2019-03-01T21:30:13.017Z,4.40
2019-03-01T21:32:41.941Z,4.40
2019-03-01T21:35:13.590Z,4.40
2019-03-01T21:37:41.343Z,4.40
2019-03-01T21:40:10.395Z,4.40
2019-03-01T21:42:39.299Z,4.30
2019-03-01T21:45:09.561Z,4.30
2019-03-01T21:47:38.323Z,4.30
2019-03-01T21:50:07.805Z,4.30
2019-03-01T21:52:36.745Z,4.20
2019-03-01T21:55:06.310Z,4.30
2019-03-01T21:57:35.144Z,4.30
2019-03-01T22:00:04.495Z,4.20
2019-03-01T22:02:33.257Z,4.20
2019-03-01T22:05:02.050Z,4.30
2019-03-01T22:07:33.688Z,4.30
2019-03-01T22:10:01.695Z,4.30
2019-03-01T22:12:30.521Z,4.30
2019-03-01T22:14:59.561Z,4.30
2019-03-01T22:17:28.326Z,4.40
2019-03-01T22:19:57.110Z,4.30
2019-03-01T22:22:26.214Z,4.30
2019-03-01T22:24:55.017Z,4.30
2019-03-01T22:27:25.291Z,4.40
2019-03-01T22:29:54.282Z,4.40
2019-03-01T22:32:23.050Z,4.40
2019-03-01T22:34:51.828Z,4.40
2019-03-01T22:37:20.885Z,4.40
2019-03-01T22:39:51.451Z,4.40
2019-03-01T22:42:20.146Z,4.40
2019-03-01T22:44:48.922Z,4.40
2019-03-01T22:47:17.690Z,4.40
2019-03-01T22:49:46.800Z,4.40
2019-03-01T22:52:15.866Z,4.30
2019-03-01T22:54:44.969Z,4.30
2019-03-01T22:57:13.745Z,4.30
2019-03-01T22:59:43.621Z,4.30
2019-03-01T23:02:15.890Z,4.30
2019-03-01T23:04:44.738Z,4.30
2019-03-01T23:07:13.505Z,4.30
2019-03-01T23:09:42.676Z,4.30
2019-03-01T23:12:14.756Z,4.30
2019-03-01T23:14:43.407Z,4.20
2019-03-01T23:17:12.191Z,4.10
2019-03-01T23:19:40.949Z,4.20
2019-03-01T23:22:11.030Z,4.20
2019-03-01T23:24:40.310Z,4.10
2019-03-01T23:27:09.155Z,4.10
2019-03-01T23:29:37.921Z,4.10
2019-03-01T23:32:06.770Z,4.20
2019-03-01T23:34:38.819Z,4.10
2019-03-01T23:37:06.033Z,4.20
2019-03-01T23:39:34.895Z,4.10
2019-03-01T23:42:03.732Z,4.10
2019-03-01T23:44:32.511Z,4.00
2019-03-01T23:47:02.818Z,4.00
2019-03-01T23:49:31.809Z,4.00
2019-03-01T23:52:00.586Z,4.00
2019-03-01T23:54:29.350Z,4.00
2019-03-01T23:56:58.117Z,4.00
2019-03-01T23:59:27.554Z,4.00
